Time;durP1;ratioP1;P1;durP2;ratioP2;P2;SDS_P1;SDS_P2;PMS_P1;PMS_P2;Temp;Humidity;BMP_temperature;BMP_pressure;BME280_temperature;BME280_humidity;BME280_pressure;Samples;Min_cycle;Max_cycle;Signal;HPM_P1;HPM_P2
2021/12/01 00:00:20;;;;;;;26.55;3.25;;;;;;;11.02;100.00;99779.16;5117334;27;20080;-65
2021/12/01 00:02:52;;;;;;;22.83;3.33;;;;;;;10.99;100.00;99768.00;5121083;27;20034;-65
2021/12/01 00:05:19;;;;;;;17.15;3.28;;;;;;;11.16;100.00;99759.88;5115358;27;20285;-65
2021/12/01 00:07:44;;;;;;;16.55;3.00;;;;;;;11.13;100.00;99743.25;5121557;27;20042;-66
2021/12/01 00:10:10;;;;;;;18.60;2.95;;;;;;;11.07;100.00;99742.59;5118244;27;20035;-66
2021/12/01 00:12:35;;;;;;;20.13;3.60;;;;;;;10.97;100.00;99732.66;5117506;27;20438;-66
2021/12/01 00:15:01;;;;;;;16.88;2.70;;;;;;;11.05;100.00;99722.88;5099857;27;20023;-66
2021/12/01 00:17:27;;;;;;;19.73;3.65;;;;;;;11.07;100.00;99715.16;5086650;27;20031;-65
2021/12/01 00:19:53;;;;;;;17.63;3.50;;;;;;;10.90;100.00;99693.09;5104439;27;20177;-66
2021/12/01 00:22:19;;;;;;;20.58;3.63;;;;;;;10.99;100.00;99686.53;5116069;27;20405;-65
2021/12/01 00:24:44;;;;;;;17.60;3.25;;;;;;;11.13;100.00;99685.66;5116972;27;20064;-65
2021/12/01 00:27:09;;;;;;;24.45;3.58;;;;;;;11.27;100.00;99704.78;5098859;27;20162;-66
2021/12/01 00:29:35;;;;;;;22.45;3.55;;;;;;;11.11;100.00;99687.91;5099065;27;20053;-65
2021/12/01 00:32:02;;;;;;;22.52;3.97;;;;;;;11.21;100.00;99671.16;5118315;27;20130;-65
2021/12/01 00:34:27;;;;;;;21.85;4.00;;;;;;;11.22;100.00;99675.53;5118534;27;20027;-65
2021/12/01 00:36:52;;;;;;;22.15;3.97;;;;;;;11.07;100.00;99662.22;5098898;27;20034;-65
2021/12/01 00:39:18;;;;;;;22.02;3.78;;;;;;;11.17;100.00;99665.50;5081781;27;20726;-65
2021/12/01 00:41:44;;;;;;;18.20;3.25;;;;;;;11.07;100.00;99678.66;5063453;27;20035;-65
2021/12/01 00:44:10;;;;;;;21.80;3.47;;;;;;;11.10;100.00;99647.88;5087552;27;20362;-64
2021/12/01 00:46:56;;;;;;;20.83;4.32;;;;;;;11.20;100.00;99648.41;5099889;27;20031;-64
2021/12/01 00:49:22;;;;;;;19.67;3.58;;;;;;;11.06;100.00;99644.94;5120806;27;20109;-64
2021/12/01 00:51:48;;;;;;;21.75;4.13;;;;;;;11.06;100.00;99623.00;5082359;27;20023;-65
2021/12/01 00:54:14;;;;;;;22.60;3.67;;;;;;;11.00;100.00;99627.84;5100227;27;20489;-66
2021/12/01 00:56:39;;;;;;;19.42;3.63;;;;;;;11.02;100.00;99614.59;5116683;27;20200;-65
2021/12/01 00:59:06;;;;;;;18.52;3.10;;;;;;;11.03;100.00;99624.47;5125228;27;20058;-66
2021/12/01 01:01:31;;;;;;;17.20;2.97;;;;;;;11.12;100.00;99609.97;5121043;27;20039;-65
2021/12/01 01:03:57;;;;;;;15.18;3.13;;;;;;;11.08;100.00;99606.25;5105224;27;20356;-65
2021/12/01 01:06:22;;;;;;;15.13;2.72;;;;;;;11.10;100.00;99604.81;5101564;27;20015;-66
2021/12/01 01:08:52;;;;;;;20.95;3.55;;;;;;;10.93;100.00;99604.72;5070480;27;20091;-66
2021/12/01 01:16:46;;;;;;;15.40;2.90;;;;;;;11.05;100.00;99599.44;5123014;27;20162;-65
2021/12/01 01:19:14;;;;;;;23.02;4.00;;;;;;;11.11;100.00;99580.94;5123939;27;20184;-66
2021/12/01 01:21:44;;;;;;;21.15;3.95;;;;;;;10.98;100.00;99566.19;5117376;27;20236;-66
2021/12/01 01:24:10;;;;;;;18.88;3.35;;;;;;;10.84;100.00;99564.34;5104718;27;20088;-67
2021/12/01 01:26:37;;;;;;;21.35;3.72;;;;;;;11.08;100.00;99560.41;5103637;27;20033;-64
2021/12/01 01:29:04;;;;;;;25.10;3.60;;;;;;;11.15;100.00;99551.72;5152068;27;20484;-65
2021/12/01 01:31:30;;;;;;;24.40;3.42;;;;;;;11.09;100.00;99534.63;5140892;27;20051;-65
2021/12/01 01:33:57;;;;;;;18.83;3.35;;;;;;;11.04;100.00;99542.97;5123584;27;20076;-66
2021/12/01 01:36:27;;;;;;;23.67;3.75;;;;;;;11.11;100.00;99529.59;5118743;27;20035;-64
2021/12/01 01:38:53;;;;;;;31.98;5.47;;;;;;;11.18;100.00;99532.72;5121790;27;20027;-65
2021/12/01 01:41:19;;;;;;;30.98;4.22;;;;;;;11.16;100.00;99521.22;5118373;27;20123;-66
2021/12/01 01:43:47;;;;;;;27.73;4.45;;;;;;;11.21;100.00;99512.88;5122252;27;20062;-65
2021/12/01 01:46:14;;;;;;;26.02;4.10;;;;;;;11.21;100.00;99528.50;5122068;27;20065;-64
2021/12/01 01:51:15;;;;;;;22.67;4.25;;;;;;;11.22;100.00;99502.72;5119820;27;20470;-65
2021/12/01 01:53:41;;;;;;;25.13;4.28;;;;;;;11.38;100.00;99486.59;5121308;27;20212;-63
2021/12/01 01:56:08;;;;;;;22.30;4.10;;;;;;;11.04;100.00;99475.22;5116472;27;20496;-64
2021/12/01 01:58:34;;;;;;;23.38;3.92;;;;;;;11.09;100.00;99454.28;5120433;27;20104;-65
2021/12/01 02:01:07;;;;;;;22.02;4.43;;;;;;;11.22;100.00;99453.31;5120522;27;20027;-65
2021/12/01 02:03:39;;;;;;;20.45;3.75;;;;;;;11.03;100.00;99451.69;5100707;28;20047;-66
2021/12/01 02:06:06;;;;;;;16.15;3.40;;;;;;;11.07;100.00;99446.34;5097081;27;20024;-65
2021/12/01 02:08:34;;;;;;;14.05;2.83;;;;;;;11.16;100.00;99429.91;5100424;28;20024;-65
2021/12/01 02:11:03;;;;;;;12.93;2.83;;;;;;;10.93;100.00;99438.25;5091357;28;20038;-65
2021/12/01 02:13:29;;;;;;;18.00;2.80;;;;;;;11.08;100.00;99430.69;5101094;27;20042;-64
2021/12/01 02:15:56;;;;;;;19.27;3.65;;;;;;;11.08;100.00;99426.03;5099548;28;20486;-64
2021/12/01 02:18:22;;;;;;;17.98;3.00;;;;;;;11.14;100.00;99407.50;5103007;28;20023;-65
2021/12/01 02:21:04;;;;;;;15.15;2.75;;;;;;;11.01;100.00;99404.56;5094528;27;20337;-64
2021/12/01 02:23:30;;;;;;;13.52;2.78;;;;;;;11.06;100.00;99414.56;5099747;28;20020;-65
2021/12/01 02:25:56;;;;;;;17.05;2.75;;;;;;;11.01;100.00;99447.63;5058143;28;20065;-65
2021/12/01 02:28:24;;;;;;;11.45;2.60;;;;;;;11.15;100.00;99398.94;5091105;28;20047;-65
2021/12/01 02:30:49;;;;;;;11.75;2.67;;;;;;;10.98;100.00;99420.84;5078884;28;20490;-63
2021/12/01 02:33:15;;;;;;;10.30;2.10;;;;;;;10.98;100.00;99383.25;5068038;28;20470;-67
2021/12/01 02:35:40;;;;;;;14.00;2.70;;;;;;;11.13;100.00;99372.94;5093398;27;20039;-65
2021/12/01 02:38:06;;;;;;;15.13;2.63;;;;;;;11.15;100.00;99360.53;5101845;28;20031;-64
2021/12/01 02:40:33;;;;;;;13.27;2.38;;;;;;;11.04;100.00;99345.53;5094672;28;20153;-65
2021/12/01 02:42:59;;;;;;;13.38;3.25;;;;;;;11.01;100.00;99344.22;5098150;28;20035;-65
2021/12/01 02:45:24;;;;;;;13.80;2.75;;;;;;;10.95;100.00;99344.69;5100102;28;20027;-65
2021/12/01 02:47:50;;;;;;;10.63;2.15;;;;;;;10.91;100.00;99341.00;5102105;28;20382;-66
2021/12/01 02:50:16;;;;;;;10.82;2.45;;;;;;;10.79;100.00;99319.69;5080014;28;20430;-65
2021/12/01 02:52:41;;;;;;;9.02;2.38;;;;;;;10.81;100.00;99318.25;5113587;27;20496;-65
2021/12/01 02:55:09;;;;;;;9.27;2.60;;;;;;;10.79;100.00;99301.31;5118208;27;20508;-65
2021/12/01 02:57:48;;;;;;;10.10;2.40;;;;;;;10.85;100.00;99291.81;5102968;27;20111;-65
2021/12/01 03:00:16;;;;;;;7.00;2.22;;;;;;;10.85;100.00;99286.31;5102351;27;20066;-65
2021/12/01 03:02:42;;;;;;;8.15;1.75;;;;;;;10.84;100.00;99284.69;5081654;28;20027;-65
2021/12/01 03:05:08;;;;;;;6.82;1.70;;;;;;;10.79;100.00;99262.94;5097760;28;20509;-65
2021/12/01 03:07:34;;;;;;;6.68;1.75;;;;;;;10.59;100.00;99258.91;5102635;28;20051;-64
2021/12/01 03:10:00;;;;;;;5.78;1.83;;;;;;;10.66;100.00;99251.00;5099487;28;20027;-65
2021/12/01 03:12:31;;;;;;;6.47;1.90;;;;;;;10.72;100.00;99253.56;5100171;28;20136;-64
2021/12/01 03:14:57;;;;;;;8.23;1.65;;;;;;;10.63;100.00;99228.91;5100545;28;20124;-65
2021/12/01 03:17:26;;;;;;;8.80;2.15;;;;;;;10.76;100.00;99227.16;5100227;28;20476;-66
2021/12/01 03:19:51;;;;;;;5.65;1.70;;;;;;;10.76;100.00;99227.16;5100513;28;20043;-65
2021/12/01 03:22:17;;;;;;;4.82;1.90;;;;;;;10.76;100.00;99219.72;5096807;28;20031;-65
2021/12/01 03:24:42;;;;;;;5.30;2.03;;;;;;;10.79;100.00;99207.28;5098535;28;20053;-65
2021/12/01 03:27:07;;;;;;;5.30;2.40;;;;;;;10.50;100.00;99200.53;5095734;28;20043;-66
2021/12/01 03:29:33;;;;;;;4.60;2.10;;;;;;;10.54;100.00;99204.22;5100499;28;20183;-65
2021/12/01 03:31:59;;;;;;;5.22;2.00;;;;;;;10.36;100.00;99184.22;5063359;28;20478;-65
2021/12/01 03:34:24;;;;;;;6.78;2.20;;;;;;;10.55;100.00;99174.91;5101428;28;20385;-66
2021/12/01 03:36:50;;;;;;;4.88;2.15;;;;;;;10.30;100.00;99180.03;5077542;28;20435;-66
2021/12/01 03:39:15;;;;;;;4.03;1.75;;;;;;;10.27;100.00;99167.75;5081419;28;20127;-65
2021/12/01 03:41:41;;;;;;;6.20;1.80;;;;;;;10.23;100.00;99171.47;5094046;28;20492;-64
2021/12/01 03:44:07;;;;;;;5.22;1.67;;;;;;;10.16;100.00;99154.72;5102271;28;20064;-64
2021/12/01 03:46:33;;;;;;;4.63;2.25;;;;;;;10.12;100.00;99136.19;5098299;28;20122;-65
2021/12/01 03:48:59;;;;;;;3.33;1.80;;;;;;;9.88;100.00;99147.56;5099385;28;20076;-66
2021/12/01 03:51:25;;;;;;;2.47;1.35;;;;;;;10.12;100.00;99136.19;5095961;28;20036;-65
2021/12/01 03:53:51;;;;;;;2.30;1.63;;;;;;;10.08;100.00;99121.53;5093633;28;20027;-65
2021/12/01 03:56:19;;;;;;;1.58;1.48;;;;;;;9.93;100.00;99122.78;5095156;28;20213;-65
2021/12/01 03:58:46;;;;;;;2.33;1.38;;;;;;;9.84;100.00;99121.16;5101029;28;20428;-64
2021/12/01 04:01:11;;;;;;;1.70;1.60;;;;;;;10.00;100.00;99121.50;5100059;28;20203;-65
2021/12/01 04:03:38;;;;;;;4.32;1.92;;;;;;;9.73;100.00;99101.50;5097888;28;20047;-65
2021/12/01 04:06:04;;;;;;;4.75;2.00;;;;;;;9.78;100.00;99093.13;5059075;28;20123;-65
2021/12/01 04:08:30;;;;;;;3.28;1.85;;;;;;;9.85;100.00;99087.19;5101596;28;20196;-65
2021/12/01 04:10:56;;;;;;;4.20;1.98;;;;;;;9.93;100.00;99072.69;5091800;28;20429;-65
2021/12/01 04:13:21;;;;;;;2.03;1.80;;;;;;;9.83;100.00;99092.19;5066779;28;20393;-65
2021/12/01 04:15:47;;;;;;;2.83;2.13;;;;;;;9.80;100.00;99054.50;5097036;28;20602;-66
2021/12/01 04:18:12;;;;;;;3.85;2.20;;;;;;;9.65;100.00;99050.31;5102020;28;20046;-66
2021/12/01 04:20:38;;;;;;;4.03;2.05;;;;;;;9.81;100.00;99045.97;5094080;28;20053;-65
2021/12/01 04:23:03;;;;;;;3.53;2.30;;;;;;;9.92;100.00;99054.69;5097310;28;20038;-65
2021/12/01 04:25:29;;;;;;;2.80;2.55;;;;;;;9.86;100.00;99042.28;5097238;28;20088;-66
2021/12/01 04:27:54;;;;;;;2.95;2.63;;;;;;;9.81;100.00;99056.13;5095442;28;20427;-65
2021/12/01 04:30:22;;;;;;;3.45;2.60;;;;;;;9.81;100.00;99045.97;5080687;28;20474;-65
2021/12/01 04:32:49;;;;;;;3.05;2.67;;;;;;;9.66;100.00;99032.78;5097743;27;20129;-65
2021/12/01 04:35:17;;;;;;;6.10;3.05;;;;;;;9.67;100.00;99028.88;5118976;27;20583;-65
2021/12/01 04:37:44;;;;;;;5.68;3.03;;;;;;;9.79;100.00;99023.59;5119466;27;20127;-65
2021/12/01 04:40:10;;;;;;;4.07;2.92;;;;;;;9.83;100.00;98988.97;5098681;27;20587;-65
2021/12/01 04:42:36;;;;;;;3.85;3.42;;;;;;;9.61;100.00;99003.63;5118087;27;20110;-65
2021/12/01 04:45:03;;;;;;;3.83;3.42;;;;;;;9.68;100.00;99025.03;5081865;27;20845;-65
2021/12/01 04:47:30;;;;;;;6.25;4.03;;;;;;;9.67;100.00;99016.00;5103805;27;20023;-66
2021/12/01 04:49:57;;;;;;;5.28;3.55;;;;;;;9.73;100.00;99008.47;5120213;27;20035;-65
2021/12/01 04:52:23;;;;;;;5.78;3.30;;;;;;;9.77;100.00;99014.09;5083304;27;20062;-66
2021/12/01 04:54:49;;;;;;;4.40;2.90;;;;;;;9.69;100.00;98997.34;5117950;27;20105;-66
2021/12/01 04:57:16;;;;;;;4.30;3.00;;;;;;;9.71;100.00;99003.31;5118736;27;20045;-66
2021/12/01 04:59:41;;;;;;;3.45;2.72;;;;;;;9.66;100.00;98994.47;5121426;27;20542;-67
2021/12/01 05:02:07;;;;;;;6.97;2.83;;;;;;;9.71;100.00;98977.88;5121484;27;20110;-66
2021/12/01 05:04:32;;;;;;;6.88;2.42;;;;;;;9.72;100.00;98993.16;5123468;27;20027;-65
2021/12/01 05:06:58;;;;;;;5.22;3.17;;;;;;;9.66;100.00;98976.09;5115304;27;20187;-64
2021/12/01 05:09:23;;;;;;;4.05;2.45;;;;;;;9.96;100.00;98980.94;5099224;27;20114;-65
2021/12/01 05:11:49;;;;;;;5.10;2.13;;;;;;;9.86;100.00;98966.44;5116625;27;20023;-65
2021/12/01 05:14:15;;;;;;;4.85;2.33;;;;;;;9.90;100.00;98956.47;5121258;27;20072;-65
2021/12/01 05:16:42;;;;;;;6.10;2.00;;;;;;;9.86;100.00;98968.38;5119190;27;20126;-65
2021/12/01 05:19:08;;;;;;;8.48;2.60;;;;;;;9.94;100.00;98967.56;5085499;27;20133;-65
2021/12/01 05:21:34;;;;;;;6.05;2.00;;;;;;;9.96;100.00;98959.03;5117361;27;21353;-65
2021/12/01 05:24:00;;;;;;;4.07;2.13;;;;;;;9.82;100.00;98951.81;5117087;27;20107;-65
2021/12/01 05:26:26;;;;;;;3.92;2.00;;;;;;;10.00;100.00;98943.56;5118097;27;20366;-65
2021/12/01 05:28:51;;;;;;;6.95;2.65;;;;;;;9.87;100.00;98939.88;5119149;27;20062;-65
2021/12/01 05:31:17;;;;;;;8.25;2.67;;;;;;;9.79;100.00;98940.66;5096790;27;20034;-68
2021/12/01 05:33:45;;;;;;;6.70;2.13;;;;;;;9.78;100.00;98936.34;5088891;28;20444;-66
2021/12/01 05:36:11;;;;;;;8.10;2.40;;;;;;;9.74;100.00;98930.72;5095295;28;20175;-66
2021/12/01 05:38:36;;;;;;;6.78;2.50;;;;;;;10.00;100.00;98936.16;5100780;28;20099;-64
2021/12/01 05:41:03;;;;;;;11.05;2.92;;;;;;;10.11;100.00;98920.97;5089701;28;20091;-64
2021/12/01 05:43:29;;;;;;;11.77;2.85;;;;;;;9.90;100.00;98914.59;5104802;28;20058;-66
2021/12/01 05:45:54;;;;;;;12.50;3.03;;;;;;;10.02;100.00;98922.13;5076847;28;20495;-65
2021/12/01 05:48:20;;;;;;;8.30;2.50;;;;;;;10.10;100.00;98910.34;5103996;27;20026;-65
2021/12/01 05:50:46;;;;;;;8.80;2.25;;;;;;;9.89;100.00;98911.03;5080120;28;20027;-65
2021/12/01 05:53:13;;;;;;;11.57;2.67;;;;;;;10.03;100.00;98916.31;5083754;28;20031;-66
2021/12/01 05:55:39;;;;;;;11.40;2.45;;;;;;;10.01;100.00;98902.16;5101679;28;20111;-65
2021/12/01 05:58:04;;;;;;;7.95;2.00;;;;;;;10.18;100.00;98897.78;5110702;28;20118;-65
2021/12/01 06:00:30;;;;;;;9.02;2.33;;;;;;;10.06;100.00;98893.78;5089056;28;20028;-66
2021/12/01 06:02:55;;;;;;;10.00;2.47;;;;;;;10.18;100.00;98893.09;5080855;28;20067;-65
2021/12/01 06:05:21;;;;;;;9.15;2.30;;;;;;;9.99;100.00;98881.72;5061470;28;20465;-66
2021/12/01 06:07:48;;;;;;;10.88;3.00;;;;;;;10.12;100.00;98884.25;5081122;28;20430;-66
2021/12/01 06:10:13;;;;;;;11.35;2.60;;;;;;;10.07;100.00;98884.44;5077998;28;20028;-66
2021/12/01 06:12:40;;;;;;;10.25;2.85;;;;;;;9.98;100.00;98877.38;5079465;28;20032;-64
2021/12/01 06:15:07;;;;;;;15.55;2.78;;;;;;;10.12;100.00;98875.25;5079279;28;20043;-65
2021/12/01 06:17:34;;;;;;;16.70;2.95;;;;;;;10.10;100.00;98882.97;5082565;28;20035;-64
2021/12/01 06:20:00;;;;;;;13.43;3.13;;;;;;;9.88;100.00;98886.75;5079907;28;20133;-66
2021/12/01 06:22:26;;;;;;;14.10;3.08;;;;;;;10.14;100.00;98880.41;5061967;28;20119;-65
2021/12/01 06:24:51;;;;;;;16.00;3.70;;;;;;;9.98;100.00;98896.53;5079193;28;20111;-65
2021/12/01 06:27:17;;;;;;;18.45;3.50;;;;;;;10.24;100.00;98855.38;5077677;28;20131;-65
2021/12/01 06:29:42;;;;;;;16.75;3.60;;;;;;;10.19;100.00;98855.56;5084303;28;20012;-65
2021/12/01 06:32:08;;;;;;;13.52;3.80;;;;;;;10.00;100.00;98845.81;5043321;28;20070;-66
2021/12/01 06:34:33;;;;;;;13.85;3.22;;;;;;;10.19;100.00;98852.84;5118707;27;20079;-65
2021/12/01 06:36:59;;;;;;;16.05;3.13;;;;;;;10.05;100.00;98856.59;5117764;27;20058;-64
2021/12/01 06:39:24;;;;;;;17.00;3.38;;;;;;;10.25;100.00;98849.59;5122491;27;20099;-64
2021/12/01 06:41:50;;;;;;;14.60;3.20;;;;;;;10.18;100.00;98849.28;5122671;27;20311;-64
2021/12/01 06:44:15;;;;;;;16.75;3.15;;;;;;;10.20;100.00;98846.22;5106613;27;20461;-65
2021/12/01 06:46:41;;;;;;;12.75;3.67;;;;;;;10.17;100.00;98846.88;5123365;27;20025;-65
2021/12/01 06:49:06;;;;;;;15.15;3.28;;;;;;;10.22;100.00;98830.28;5120846;27;20031;-66
2021/12/01 06:51:32;;;;;;;13.52;3.25;;;;;;;10.20;100.00;98840.72;5102075;27;20108;-64
2021/12/01 06:53:57;;;;;;;16.77;3.83;;;;;;;10.42;100.00;98831.50;5118544;27;20118;-65
2021/12/01 06:56:22;;;;;;;13.45;2.92;;;;;;;10.28;100.00;98823.47;5121590;27;20028;-64
2021/12/01 06:58:49;;;;;;;9.55;2.50;;;;;;;10.35;100.00;98833.97;5123668;27;20059;-65
2021/12/01 07:01:15;;;;;;;14.95;3.05;;;;;;;10.37;100.00;98826.22;5100057;27;20031;-65
2021/12/01 07:03:41;;;;;;;17.00;3.60;;;;;;;10.29;100.00;98836.03;5122613;27;20453;-65
2021/12/01 07:06:06;;;;;;;17.25;3.25;;;;;;;10.30;100.00;98827.47;5115359;27;20042;-65
2021/12/01 07:08:32;;;;;;;17.85;3.47;;;;;;;10.38;100.00;98827.78;5106781;27;20030;-63
2021/12/01 07:10:58;;;;;;;21.60;3.25;;;;;;;10.63;100.00;98826.84;5117995;27;20080;-64
2021/12/01 07:13:23;;;;;;;18.58;3.38;;;;;;;10.48;100.00;98819.22;5103065;27;20361;-65
2021/12/01 07:15:49;;;;;;;18.05;3.70;;;;;;;10.46;100.00;98837.91;5120309;27;20023;-65
2021/12/01 07:18:15;;;;;;;15.00;3.83;;;;;;;10.56;100.00;98831.25;5088280;27;20038;-64
2021/12/01 07:20:44;;;;;;;12.85;3.50;;;;;;;10.50;100.00;98841.59;5119388;27;20026;-65
2021/12/01 07:23:10;;;;;;;22.83;4.32;;;;;;;10.76;100.00;98868.88;5120492;27;20039;-66
2021/12/01 07:25:36;;;;;;;20.02;3.45;;;;;;;10.08;100.00;98888.78;5104369;27;20024;-64
2021/12/01 07:28:01;;;;;;;15.32;3.33;;;;;;;9.83;100.00;98900.59;5123923;27;20018;-65
2021/12/01 07:30:26;;;;;;;21.80;3.45;;;;;;;9.76;100.00;98881.94;5107857;27;20067;-65
2021/12/01 07:32:52;;;;;;;19.65;3.13;;;;;;;9.66;100.00;98904.16;5125088;27;20077;-66
2021/12/01 07:35:18;;;;;;;18.02;3.65;;;;;;;9.25;100.00;98902.69;5088783;27;20103;-66
2021/12/01 07:37:44;;;;;;;19.73;3.15;;;;;;;9.18;100.00;98890.34;5125293;27;20037;-66
2021/12/01 07:40:10;;;;;;;11.00;2.72;;;;;;;9.13;100.00;98886.94;5139962;27;20253;-65
2021/12/01 07:42:36;;;;;;;16.23;3.42;;;;;;;9.12;100.00;98882.59;5124942;27;20030;-65
2021/12/01 07:45:04;;;;;;;12.45;2.60;;;;;;;9.32;100.00;98881.16;5140462;27;20045;-66
2021/12/01 07:47:31;;;;;;;14.57;3.03;;;;;;;9.38;100.00;98891.63;5143783;27;20027;-64
2021/12/01 07:49:58;;;;;;;15.02;3.60;;;;;;;9.60;100.00;98886.31;5141636;27;20488;-64
2021/12/01 07:52:24;;;;;;;18.02;2.70;;;;;;;9.75;100.00;98896.72;5105531;27;20038;-65
2021/12/01 07:54:49;;;;;;;15.30;2.65;;;;;;;10.03;100.00;98894.41;5141011;27;20287;-65
2021/12/01 07:57:15;;;;;;;17.13;3.25;;;;;;;9.94;100.00;98910.09;5137686;27;20248;-66
2021/12/01 07:59:40;;;;;;;15.52;2.65;;;;;;;9.63;100.00;98935.72;5142117;27;20125;-66
2021/12/01 08:02:06;;;;;;;12.57;2.95;;;;;;;9.44;100.00;98924.28;5136382;27;20102;-65
2021/12/01 08:04:32;;;;;;;11.95;2.30;;;;;;;9.50;100.00;98920.25;5142403;27;20465;-65
2021/12/01 08:06:58;;;;;;;14.43;3.00;;;;;;;9.44;100.00;98916.06;5136067;27;20514;-64
2021/12/01 08:09:24;;;;;;;16.75;2.67;;;;;;;9.34;100.00;98922.66;5103718;27;20388;-65
2021/12/01 08:11:50;;;;;;;15.38;2.70;;;;;;;9.34;100.00;98926.19;5140539;27;20326;-64
2021/12/01 08:14:16;;;;;;;12.05;2.10;;;;;;;9.44;100.00;98929.75;5120331;27;20034;-65
2021/12/01 08:16:41;;;;;;;16.20;3.28;;;;;;;9.35;100.00;98935.22;5120661;27;20027;-65
2021/12/01 08:19:07;;;;;;;15.63;2.15;;;;;;;9.33;100.00;98945.66;5119103;27;20315;-65
2021/12/01 08:21:33;;;;;;;11.68;2.15;;;;;;;9.18;100.00;98939.53;5119338;27;20183;-67
2021/12/01 08:23:59;;;;;;;11.82;2.63;;;;;;;9.32;100.00;98927.66;5137977;27;20448;-66
2021/12/01 08:26:25;;;;;;;13.45;2.60;;;;;;;9.24;100.00;98934.72;5086127;27;20033;-65
2021/12/01 08:28:50;;;;;;;8.30;1.83;;;;;;;9.18;100.00;98923.13;5140463;27;20023;-66
2021/12/01 08:31:18;;;;;;;8.23;1.98;;;;;;;9.26;100.00;98928.94;5140317;27;20954;-65
2021/12/01 08:33:45;;;;;;;11.75;2.28;;;;;;;9.36;100.00;98934.06;5141748;27;20138;-64
2021/12/01 08:36:11;;;;;;;9.32;2.30;;;;;;;9.42;100.00;98923.81;5100094;27;20027;-65
2021/12/01 08:38:38;;;;;;;13.00;2.47;;;;;;;9.05;100.00;98937.75;5142513;27;20027;-65
2021/12/01 08:41:05;;;;;;;12.60;2.15;;;;;;;8.60;100.00;98918.81;5132620;27;20430;-66
2021/12/01 08:43:31;;;;;;;14.18;2.60;;;;;;;8.61;100.00;98923.97;5120880;27;20050;-65
2021/12/01 08:45:57;;;;;;;9.65;2.00;;;;;;;8.70;100.00;98934.91;5100178;27;20063;-66
2021/12/01 08:48:24;;;;;;;19.85;3.30;;;;;;;8.75;100.00;98940.22;5086094;27;20505;-65
2021/12/01 08:50:49;;;;;;;12.63;2.20;;;;;;;8.97;100.00;98953.00;5118944;27;20476;-65
2021/12/01 08:53:15;;;;;;;13.55;2.17;;;;;;;9.07;100.00;98949.16;5084088;27;20847;-66
2021/12/01 08:55:41;;;;;;;10.43;2.22;;;;;;;8.94;100.00;98978.22;5098831;27;20035;-67
2021/12/01 08:58:14;;;;;;;13.35;2.78;;;;;;;8.79;100.00;98984.13;5134272;27;20110;-65
2021/12/01 09:00:46;;;;;;;;;;;;;;;8.56;100.00;98978.72;5143067;27;20021;-66
2021/12/01 09:03:12;;;;;;;12.43;1.58;;;;;;;8.56;100.00;98964.25;5139645;27;19911;-65
2021/12/01 09:05:39;;;;;;;18.42;2.55;;;;;;;8.91;100.00;98967.94;5139578;27;20026;-65
2021/12/01 09:08:04;;;;;;;10.82;1.70;;;;;;;8.81;100.00;98965.50;5139516;27;20496;-65
2021/12/01 09:10:31;;;;;;;14.98;2.63;;;;;;;8.92;100.00;98971.47;5138521;27;20038;-65
2021/12/01 09:12:57;;;;;;;12.70;2.10;;;;;;;8.90;100.00;98982.72;5141256;27;20046;-66
2021/12/01 09:15:23;;;;;;;12.60;1.83;;;;;;;8.51;100.00;98987.06;5103427;27;20197;-66
2021/12/01 09:17:49;;;;;;;11.32;2.30;;;;;;;8.44;100.00;98984.78;5144273;27;20326;-66
2021/12/01 09:20:15;;;;;;;13.68;2.47;;;;;;;8.32;100.00;98970.06;5142755;27;20031;-67
2021/12/01 09:22:40;;;;;;;12.10;2.33;;;;;;;8.43;100.00;98966.78;5144170;27;20065;-64
2021/12/01 09:25:07;;;;;;;9.20;2.10;;;;;;;8.67;100.00;98981.97;5121166;27;20492;-64
2021/12/01 09:27:32;;;;;;;7.50;1.88;;;;;;;8.54;100.00;98991.06;5124537;27;20031;-65
2021/12/01 09:29:59;;;;;;;14.65;2.63;;;;;;;8.80;100.00;99007.59;5143272;27;20033;-65
2021/12/01 09:32:25;;;;;;;11.68;2.10;;;;;;;8.92;100.00;99004.25;5109816;27;20030;-65
2021/12/01 09:34:51;;;;;;;13.82;2.53;;;;;;;8.86;100.00;99011.00;5147200;27;20053;-65
2021/12/01 09:37:16;;;;;;;16.35;2.33;;;;;;;8.68;100.00;99007.38;5143028;27;20026;-66
2021/12/01 09:39:43;;;;;;;15.48;2.42;;;;;;;8.80;100.00;99015.78;5126931;27;20133;-67
2021/12/01 09:42:10;;;;;;;10.02;2.00;;;;;;;8.25;100.00;99003.28;5121501;27;20038;-65
2021/12/01 09:44:37;;;;;;;12.10;2.35;;;;;;;8.33;100.00;98988.03;5141715;27;20031;-65
2021/12/01 09:47:03;;;;;;;14.13;2.63;;;;;;;8.42;100.00;99005.28;5143122;27;20026;-66
2021/12/01 09:49:29;;;;;;;9.98;2.25;;;;;;;8.50;100.00;99001.84;5110286;27;20027;-66
2021/12/01 09:51:55;;;;;;;13.93;2.30;;;;;;;8.52;100.00;99006.97;5142867;27;20031;-66
2021/12/01 09:54:20;;;;;;;10.10;2.08;;;;;;;8.63;100.00;99002.88;5144494;27;20035;-64
2021/12/01 09:56:46;;;;;;;17.10;2.35;;;;;;;8.73;100.00;99008.03;5126390;27;20014;-65
2021/12/01 09:59:12;;;;;;;16.95;3.25;;;;;;;8.89;100.00;99005.72;5143030;27;20477;-66
2021/12/01 10:01:37;;;;;;;15.13;2.75;;;;;;;8.79;100.00;99011.47;5123254;27;20206;-66
2021/12/01 10:04:04;;;;;;;13.60;2.72;;;;;;;8.80;100.00;99030.25;5125035;27;20061;-66
2021/12/01 10:06:29;;;;;;;13.85;2.03;;;;;;;8.84;100.00;99008.59;5107070;27;20052;-65
2021/12/01 10:09:07;;;;;;;12.98;2.22;;;;;;;9.16;100.00;99014.78;5123945;27;20174;-66
2021/12/01 10:11:41;;;;;;;11.68;2.30;;;;;;;9.19;100.00;99020.44;5121607;27;20113;-65
2021/12/01 10:14:25;;;;;;;13.02;2.17;;;;;;;9.11;100.00;99039.53;5140698;27;20310;-66
2021/12/01 10:16:54;;;;;;;11.65;2.33;;;;;;;9.01;100.00;99035.16;5134912;27;20508;-67
2021/12/01 10:19:21;;;;;;;11.55;2.20;;;;;;;9.04;100.00;99022.81;5100349;27;20419;-66
2021/12/01 10:21:49;;;;;;;19.90;3.45;;;;;;;9.12;100.00;99020.09;5074218;27;20455;-67
2021/12/01 10:24:16;;;;;;;18.63;2.55;;;;;;;9.06;100.00;99015.88;5118445;27;20031;-67
2021/12/01 10:26:45;;;;;;;15.32;2.80;;;;;;;8.94;100.00;99030.16;5116986;27;20026;-65
2021/12/01 10:29:14;;;;;;;13.88;3.35;;;;;;;9.28;100.00;99011.44;5094218;27;20035;-66
2021/12/01 10:31:51;;;;;;;16.65;2.75;;;;;;;9.27;100.00;98999.72;5086979;27;20075;-66
2021/12/01 10:34:18;;;;;;;15.85;2.40;;;;;;;9.20;100.00;99005.66;5104247;27;20075;-66
2021/12/01 10:36:45;;;;;;;10.00;2.47;;;;;;;9.17;100.00;99017.22;5125851;27;20031;-67
2021/12/01 10:39:11;;;;;;;14.65;2.35;;;;;;;9.11;100.00;99017.69;5120313;27;20436;-66
2021/12/01 10:41:38;;;;;;;13.85;2.63;;;;;;;9.05;100.00;99022.50;5144153;27;20033;-70
2021/12/01 10:44:16;;;;;;;11.15;2.40;;;;;;;9.41;100.00;99023.38;5139671;27;20083;-65
2021/12/01 10:46:48;;;;;;;12.48;2.53;;;;;;;9.08;100.00;99015.56;5141051;27;20014;-66
2021/12/01 10:49:14;;;;;;;10.87;1.97;;;;;;;9.14;100.00;99020.56;5137583;27;20032;-66
2021/12/01 10:51:42;;;;;;;12.93;2.45;;;;;;;9.23;100.00;99020.63;5141078;27;20298;-66
2021/12/01 10:54:18;;;;;;;11.50;2.35;;;;;;;9.23;100.00;99028.00;5139406;27;20026;-66
2021/12/01 10:56:45;;;;;;;9.90;2.53;;;;;;;9.30;100.00;99026.41;5141806;27;20025;-66
2021/12/01 10:59:16;;;;;;;14.25;2.63;;;;;;;9.41;100.00;99026.91;5138727;27;20083;-65
2021/12/01 11:01:42;;;;;;;13.80;2.42;;;;;;;9.38;100.00;99020.16;5141707;27;20026;-67
2021/12/01 11:04:08;;;;;;;13.75;2.30;;;;;;;9.25;100.00;99045.72;5139367;27;20033;-65
2021/12/01 11:06:43;;;;;;;15.10;2.35;;;;;;;9.44;100.00;99037.22;5101795;27;20026;-65
2021/12/01 11:09:12;;;;;;;12.10;2.28;;;;;;;9.53;100.00;99027.09;5119891;27;20038;-66
2021/12/01 11:11:47;;;;;;;8.52;1.63;;;;;;;9.57;100.00;99021.78;5123824;27;20202;-66
2021/12/01 11:14:17;;;;;;;19.70;2.83;;;;;;;9.46;100.00;99035.00;5136428;27;20027;-66
2021/12/01 11:16:44;;;;;;;15.07;2.47;;;;;;;9.58;100.00;99037.09;5123566;27;20415;-66
2021/12/01 11:19:11;;;;;;;9.73;2.00;;;;;;;9.52;100.00;99027.44;5139362;27;20072;-64
2021/12/01 11:21:38;;;;;;;10.35;2.45;;;;;;;9.47;100.00;99039.31;5102918;27;20023;-66
2021/12/01 11:24:11;;;;;;;12.73;2.53;;;;;;;9.64;100.00;99024.06;5139212;27;20338;-66
2021/12/01 11:26:40;;;;;;;12.35;2.28;;;;;;;9.55;100.00;99049.47;5124947;27;20030;-64
2021/12/01 11:29:09;;;;;;;9.85;2.47;;;;;;;9.64;100.00;99033.09;5117573;27;20118;-65